createdAt,value
2019-04-21T00:01:35.707Z,58.50
2019-04-21T00:04:12.416Z,58.40
2019-04-21T00:06:48.036Z,58.60
2019-04-21T00:09:21.047Z,58.60
2019-04-21T00:11:47.203Z,58.80
2019-04-21T00:14:07.911Z,58.80
2019-04-21T00:16:32.146Z,58.80
2019-04-21T00:19:12.178Z,58.80
2019-04-21T00:21:40.516Z,58.80
2019-04-21T00:24:23.872Z,59.00
2019-04-21T00:27:05.593Z,58.90
2019-04-21T00:29:35.439Z,58.90
2019-04-21T00:31:56.350Z,59.00
2019-04-21T00:34:11.211Z,59.10
2019-04-21T00:36:47.105Z,59.10
2019-04-21T00:39:36.404Z,59.20
2019-04-21T00:41:59.622Z,59.30
2019-04-21T00:44:21.483Z,59.40
2019-04-21T00:47:00.611Z,59.60
2019-04-21T00:49:28.237Z,59.80
2019-04-21T00:52:29.789Z,59.90
2019-04-21T00:55:01.441Z,59.80
2019-04-21T00:57:21.962Z,59.70
2019-04-21T00:59:46.378Z,59.90
2019-04-21T01:02:12.408Z,60.00
2019-04-21T01:04:42.961Z,60.00
2019-04-21T01:07:14.214Z,60.20
2019-04-21T01:09:36.703Z,59.90
2019-04-21T01:12:08.369Z,60.20
2019-04-21T01:14:45.630Z,60.10
2019-04-21T01:17:14.622Z,60.30
2019-04-21T01:19:33.235Z,60.30
2019-04-21T01:21:44.243Z,60.40
2019-04-21T01:24:19.267Z,60.50
2019-04-21T01:26:52.523Z,60.60
2019-04-21T01:29:34.290Z,61.00
2019-04-21T01:32:05.127Z,61.10
2019-04-21T01:34:29.023Z,61.00
2019-04-21T01:36:55.708Z,61.30
2019-04-21T01:39:29.167Z,61.50
2019-04-21T01:42:00.058Z,61.70
2019-04-21T01:44:31.281Z,62.00
2019-04-21T01:46:49.043Z,61.70
2019-04-21T01:49:16.047Z,61.80
2019-04-21T01:52:05.585Z,62.30
2019-04-21T01:54:44.982Z,62.20
2019-04-21T01:57:15.636Z,63.00
2019-04-21T01:59:34.905Z,62.70
2019-04-21T02:02:14.176Z,62.30
2019-04-21T02:04:47.355Z,61.90
2019-04-21T02:07:14.835Z,62.10
2019-04-21T02:09:43.321Z,62.60
2019-04-21T02:12:13.381Z,62.10
2019-04-21T02:14:45.679Z,61.90
2019-04-21T02:17:09.952Z,62.10
2019-04-21T02:19:34.896Z,62.20
2019-04-21T02:22:00.871Z,62.40
2019-04-21T02:24:42.733Z,62.80
2019-04-21T02:27:07.634Z,63.50
2019-04-21T02:29:39.468Z,64.40
2019-04-21T02:32:08.928Z,64.60
2019-04-21T02:39:46.739Z,66.40
2019-04-21T02:42:02.073Z,67.40
2019-04-21T02:47:05.592Z,67.30
2019-04-21T02:52:16.529Z,66.40
2019-04-21T02:57:01.573Z,66.20
2019-04-21T02:59:33.746Z,66.70
2019-04-21T03:05:02.298Z,66.80
2019-04-21T03:07:52.695Z,67.30
2019-04-21T03:12:22.546Z,67.60
2019-04-21T03:15:12.148Z,68.10
2019-04-21T03:17:39.649Z,68.50
2019-04-21T03:20:00.369Z,68.80
2019-04-21T03:27:29.137Z,68.70
2019-04-21T03:29:57.099Z,68.70
2019-04-21T03:32:55.405Z,68.70
2019-04-21T03:35:14.841Z,69.10
2019-04-21T03:37:30.851Z,69.10
2019-04-21T03:47:14.642Z,70.60
2019-04-21T03:49:47.547Z,70.90
2019-04-21T03:52:11.411Z,71.30
2019-04-21T03:55:42.889Z,71.60
2019-04-21T03:58:05.531Z,75.00
2019-04-21T04:00:21.923Z,78.70
2019-04-21T04:03:28.132Z,80.80
2019-04-21T04:05:59.648Z,82.70
2019-04-21T04:08:31.511Z,84.40
2019-04-21T04:11:04.611Z,85.10
2019-04-21T04:13:26.535Z,85.90
2019-04-21T04:16:04.582Z,86.30
2019-04-21T04:18:31.299Z,86.90
2019-04-21T04:20:42.480Z,87.20
2019-04-21T04:25:42.389Z,88.20
2019-04-21T04:31:01.122Z,88.70
2019-04-21T04:33:07.967Z,89.40
2019-04-21T04:35:55.993Z,89.70
2019-04-21T04:38:12.908Z,89.90
2019-04-21T04:40:51.661Z,90.10
2019-04-21T04:43:19.294Z,90.40
2019-04-21T04:45:44.126Z,90.50
2019-04-21T04:48:11.873Z,90.50
2019-04-21T04:50:49.455Z,90.60
2019-04-21T04:53:34.981Z,90.60
2019-04-21T04:58:13.235Z,90.80
2019-04-21T05:03:01.408Z,91.10
2019-04-21T05:06:28.508Z,91.20
2019-04-21T05:08:52.453Z,91.40
2019-04-21T05:11:20.865Z,91.40
2019-04-21T05:13:43.413Z,91.30
2019-04-21T05:16:18.559Z,91.30
2019-04-21T05:18:43.867Z,91.40
2019-04-21T05:21:16.375Z,91.10
2019-04-21T05:25:51.239Z,91.10
2019-04-21T05:28:15.133Z,91.10
2019-04-21T05:31:13.036Z,91.00
2019-04-21T05:33:38.408Z,91.00
2019-04-21T05:36:23.914Z,91.00
2019-04-21T05:39:02.633Z,91.10
2019-04-21T05:41:20.638Z,91.10
2019-04-21T05:44:04.844Z,91.00
2019-04-21T05:46:32.041Z,91.10
2019-04-21T05:49:05.863Z,90.80
2019-04-21T05:51:31.774Z,90.90
2019-04-21T05:54:10.050Z,90.70
2019-04-21T05:56:32.354Z,90.90
2019-04-21T05:58:55.417Z,90.90
2019-04-21T06:01:33.100Z,90.80
2019-04-21T06:04:09.058Z,90.60
2019-04-21T06:06:35.487Z,90.50
2019-04-21T06:08:54.068Z,90.60
2019-04-21T06:11:28.461Z,89.10
2019-04-21T06:14:03.786Z,87.30
2019-04-21T06:16:43.895Z,85.80
2019-04-21T06:18:53.079Z,84.40
2019-04-21T06:21:16.326Z,83.40
2019-04-21T06:23:44.727Z,81.90
2019-04-21T06:26:46.297Z,80.10
2019-04-21T06:28:50.430Z,78.80
2019-04-21T06:31:45.088Z,77.10
2019-04-21T06:33:44.801Z,75.60
2019-04-21T06:41:32.726Z,67.10
2019-04-21T06:43:56.351Z,66.30
2019-04-21T06:46:30.832Z,64.50
2019-04-21T06:48:55.687Z,63.60
2019-04-21T06:51:24.042Z,62.30
2019-04-21T06:53:52.450Z,62.40
2019-04-21T06:56:23.589Z,61.70
2019-04-21T06:58:43.792Z,60.00
2019-04-21T07:01:15.758Z,58.60
2019-04-21T07:03:48.698Z,57.90
2019-04-21T07:06:13.124Z,58.60
2019-04-21T07:08:56.715Z,57.50
2019-04-21T07:11:10.972Z,55.10
2019-04-21T07:13:38.853Z,52.50
2019-04-21T07:16:13.612Z,49.10
2019-04-21T07:18:41.356Z,47.90
2019-04-21T07:21:07.937Z,45.70
2019-04-21T07:23:38.601Z,44.20
2019-04-21T07:26:02.963Z,43.80
2019-04-21T07:28:31.550Z,41.40
2019-04-21T07:31:12.979Z,40.30
2019-04-21T07:33:53.967Z,40.30
2019-04-21T07:36:06.465Z,37.20
2019-04-21T07:38:37.456Z,36.60
2019-04-21T07:40:58.720Z,36.70
2019-04-21T07:43:24.644Z,36.30
2019-04-21T07:45:55.456Z,36.90
2019-04-21T07:48:33.247Z,38.50
2019-04-21T07:51:14.010Z,38.00
2019-04-21T07:53:51.566Z,36.70
2019-04-21T07:55:55.111Z,36.90
2019-04-21T07:58:49.263Z,37.10
2019-04-21T08:01:12.417Z,37.00
2019-04-21T08:03:38.826Z,38.30
2019-04-21T08:06:08.882Z,39.60
2019-04-21T08:08:33.402Z,38.40
2019-04-21T08:11:04.219Z,38.40
2019-04-21T08:13:40.055Z,37.80
2019-04-21T08:15:58.098Z,36.60
2019-04-21T08:18:35.025Z,37.20
2019-04-21T08:20:54.961Z,37.90
2019-04-21T08:23:29.325Z,38.50
2019-04-21T08:26:12.158Z,39.10
2019-04-21T08:28:25.930Z,38.40
2019-04-21T08:30:56.409Z,37.20
2019-04-21T08:38:20.092Z,35.10
2019-04-21T08:40:51.089Z,34.40
2019-04-21T08:43:21.408Z,32.70
2019-04-21T08:45:46.931Z,32.50
2019-04-21T08:48:18.276Z,33.40
2019-04-21T08:50:46.197Z,34.10
2019-04-21T08:53:12.529Z,34.80
2019-04-21T08:56:18.428Z,34.00
2019-04-21T08:59:17.666Z,33.80
2019-04-21T09:01:53.349Z,33.70
2019-04-21T09:04:19.883Z,33.90
2019-04-21T09:09:16.768Z,33.60
2019-04-21T09:11:45.573Z,33.50
2019-04-21T09:14:13.145Z,32.10
2019-04-21T09:16:36.680Z,32.20
2019-04-21T09:19:05.788Z,31.90
2019-04-21T09:21:42.303Z,30.90
2019-04-21T09:24:11.453Z,29.10
2019-04-21T09:26:34.042Z,27.90
2019-04-21T09:28:58.395Z,28.40
2019-04-21T09:31:19.349Z,28.50
2019-04-21T09:33:49.000Z,29.00
2019-04-21T09:36:15.434Z,28.50
2019-04-21T09:38:43.586Z,28.70
2019-04-21T09:41:14.263Z,28.30
2019-04-21T09:43:45.325Z,28.30
2019-04-21T09:46:08.398Z,28.40
2019-04-21T09:48:46.617Z,29.10
2019-04-21T09:51:04.117Z,28.80
2019-04-21T09:53:35.146Z,28.70
2019-04-21T09:56:04.697Z,28.60
2019-04-21T09:58:34.741Z,28.80
2019-04-21T10:01:08.461Z,27.80
2019-04-21T10:03:26.387Z,27.80
2019-04-21T10:05:54.096Z,27.80
2019-04-21T10:08:21.370Z,26.90
2019-04-21T10:10:49.088Z,26.60
2019-04-21T10:13:17.115Z,26.30
2019-04-21T10:15:46.280Z,26.80
2019-04-21T10:18:17.415Z,26.50
2019-04-21T10:20:44.854Z,26.40
2019-04-21T10:23:11.824Z,26.70
2019-04-21T10:25:38.764Z,26.10
2019-04-21T10:28:05.594Z,26.30
2019-04-21T10:30:32.979Z,26.90
2019-04-21T10:33:00.701Z,26.80
2019-04-21T10:35:28.863Z,26.40
2019-04-21T10:38:10.395Z,26.80
2019-04-21T10:40:27.491Z,26.90
2019-04-21T10:42:56.258Z,26.50
2019-04-21T10:45:23.435Z,26.40
2019-04-21T10:47:50.261Z,27.80
2019-04-21T10:50:18.375Z,28.30
2019-04-21T10:53:01.254Z,27.70
2019-04-21T10:55:44.962Z,27.00
2019-04-21T10:58:24.574Z,26.60
2019-04-21T11:00:58.048Z,26.70
2019-04-21T11:03:33.219Z,26.80
2019-04-21T11:06:01.085Z,27.00
2019-04-21T11:08:34.101Z,26.50
2019-04-21T11:10:58.215Z,25.30
2019-04-21T11:13:26.364Z,26.40
2019-04-21T11:15:55.076Z,26.50
2019-04-21T11:18:22.240Z,26.60
2019-04-21T11:20:51.197Z,26.50
2019-04-21T11:23:21.013Z,26.50
2019-04-21T11:25:48.197Z,26.90
2019-04-21T11:28:16.715Z,25.80
2019-04-21T11:30:44.528Z,23.80
2019-04-21T11:33:13.060Z,25.00
2019-04-21T11:35:41.286Z,26.80
2019-04-21T11:38:18.088Z,25.40
2019-04-21T11:40:42.194Z,23.00
2019-04-21T11:43:11.474Z,22.40
2019-04-21T11:45:39.965Z,22.20
2019-04-21T11:48:14.438Z,24.50
2019-04-21T11:50:41.539Z,25.20
2019-04-21T11:53:08.562Z,23.50
2019-04-21T11:55:39.834Z,23.70
2019-04-21T11:58:05.632Z,23.10
2019-04-21T12:00:33.604Z,23.00
2019-04-21T12:03:01.612Z,23.30
2019-04-21T12:05:29.676Z,23.70
2019-04-21T12:07:58.508Z,24.40
2019-04-21T12:10:25.311Z,23.80
2019-04-21T12:12:53.123Z,24.50
2019-04-21T12:15:20.849Z,24.30
2019-04-21T12:17:48.051Z,23.80
2019-04-21T12:20:16.674Z,24.20
2019-04-21T12:22:45.235Z,24.20
2019-04-21T12:25:15.543Z,24.80
2019-04-21T12:27:43.859Z,25.20
2019-04-21T12:30:13.680Z,25.30
2019-04-21T12:32:51.922Z,25.70
2019-04-21T12:35:19.713Z,26.20
2019-04-21T12:37:46.956Z,26.50
2019-04-21T12:40:14.726Z,26.20
2019-04-21T12:42:42.417Z,26.50
2019-04-21T12:45:11.153Z,26.60
2019-04-21T12:47:37.995Z,26.20
2019-04-21T12:50:06.995Z,26.90
2019-04-21T12:52:33.977Z,27.50
2019-04-21T12:55:01.727Z,27.60
2019-04-21T12:57:31.419Z,28.50
2019-04-21T12:59:57.851Z,28.40
2019-04-21T13:02:25.408Z,29.70
2019-04-21T13:04:53.036Z,29.80
2019-04-21T13:07:21.625Z,29.30
2019-04-21T13:09:48.679Z,30.40
2019-04-21T13:12:15.726Z,30.80
2019-04-21T13:14:43.964Z,31.00
2019-04-21T13:17:11.264Z,30.50
2019-04-21T13:19:38.990Z,30.70
2019-04-21T13:22:06.111Z,31.30
2019-04-21T13:24:33.712Z,31.20
2019-04-21T13:27:03.965Z,31.70
2019-04-21T13:29:32.314Z,32.80
2019-04-21T13:32:01.195Z,33.00
2019-04-21T13:34:28.376Z,33.40
2019-04-21T13:36:55.651Z,30.90
2019-04-21T13:40:03.440Z,32.70
2019-04-21T13:42:16.613Z,32.80
2019-04-21T13:44:36.982Z,33.40
2019-04-21T13:47:04.902Z,33.70
2019-04-21T13:49:31.871Z,34.10
2019-04-21T13:51:58.770Z,33.60
2019-04-21T13:54:25.788Z,33.50
2019-04-21T13:56:54.254Z,34.10
2019-04-21T13:59:22.468Z,33.20
2019-04-21T14:01:49.732Z,33.10
2019-04-21T14:04:17.791Z,32.90
2019-04-21T14:06:45.017Z,31.90
2019-04-21T14:09:13.601Z,32.60
2019-04-21T14:11:41.251Z,32.30
2019-04-21T14:14:08.336Z,31.60
2019-04-21T14:16:36.105Z,31.90
2019-04-21T14:19:03.510Z,32.40
2019-04-21T14:21:31.411Z,31.40
2019-04-21T14:23:59.532Z,30.70
2019-04-21T14:26:26.885Z,30.90
2019-04-21T14:28:54.659Z,32.20
2019-04-21T14:31:22.192Z,32.10
2019-04-21T14:33:50.018Z,33.10
2019-04-21T14:36:16.972Z,31.40
2019-04-21T14:38:44.734Z,31.60
2019-04-21T14:41:12.446Z,29.50
2019-04-21T14:43:39.594Z,29.60
2019-04-21T14:46:26.945Z,31.10
2019-04-21T14:49:11.022Z,29.90
2019-04-21T14:51:43.441Z,29.40
2019-04-21T14:54:20.982Z,29.70
2019-04-21T14:56:49.258Z,30.00
2019-04-21T14:59:17.214Z,30.10
2019-04-21T15:01:44.225Z,30.30
2019-04-21T15:04:11.254Z,29.90
2019-04-21T15:06:39.249Z,29.90
2019-04-21T15:09:07.156Z,29.40
2019-04-21T15:11:34.171Z,29.30
2019-04-21T15:14:02.022Z,30.40
2019-04-21T15:16:29.104Z,30.80
2019-04-21T15:18:56.790Z,31.50
2019-04-21T15:21:23.835Z,30.00
2019-04-21T15:23:50.816Z,30.30
2019-04-21T15:26:18.045Z,30.60
2019-04-21T15:28:46.691Z,29.80
2019-04-21T15:31:20.441Z,29.10
2019-04-21T15:33:43.206Z,29.10
2019-04-21T15:36:11.262Z,29.00
2019-04-21T15:38:38.272Z,29.30
2019-04-21T15:41:10.121Z,30.00
2019-04-21T15:43:34.020Z,29.90
2019-04-21T15:46:00.765Z,29.80
2019-04-21T15:48:28.942Z,30.10
2019-04-21T15:50:56.788Z,29.80
2019-04-21T15:53:25.673Z,29.10
2019-04-21T15:56:09.051Z,28.60
2019-04-21T15:59:01.521Z,29.00
2019-04-21T16:01:54.630Z,28.60
2019-04-21T16:04:23.037Z,28.70
2019-04-21T16:06:50.028Z,27.70
2019-04-21T16:09:21.419Z,27.50
2019-04-21T16:11:46.097Z,27.70
2019-04-21T16:14:14.535Z,28.00
2019-04-21T16:16:43.180Z,28.20
2019-04-21T16:19:10.336Z,28.30
2019-04-21T16:21:41.014Z,28.00
2019-04-21T16:24:06.772Z,29.00
2019-04-21T16:26:34.966Z,28.90
2019-04-21T16:29:02.918Z,28.40
2019-04-21T16:31:30.161Z,28.20
2019-04-21T16:33:58.757Z,28.00
2019-04-21T16:36:25.915Z,28.10
2019-04-21T16:38:53.595Z,28.10
2019-04-21T16:41:20.527Z,27.60
2019-04-21T16:43:47.264Z,28.20
2019-04-21T16:46:14.087Z,28.20
2019-04-21T16:48:42.006Z,28.40
2019-04-21T16:51:09.903Z,29.30
2019-04-21T16:53:41.911Z,30.00
2019-04-21T16:56:25.097Z,29.50
2019-04-21T16:58:56.741Z,30.20
2019-04-21T17:01:29.339Z,29.90
2019-04-21T17:03:55.523Z,29.80
2019-04-21T17:06:22.905Z,30.30
2019-04-21T17:08:50.604Z,30.30
2019-04-21T17:11:23.799Z,30.60
2019-04-21T17:13:47.373Z,30.50
2019-04-21T17:16:42.208Z,30.50
2019-04-21T17:18:53.707Z,30.80
2019-04-21T17:21:13.257Z,31.00
2019-04-21T17:23:40.792Z,30.90
2019-04-21T17:26:08.895Z,31.00
2019-04-21T17:28:36.394Z,31.30
2019-04-21T17:31:04.695Z,31.00
2019-04-21T17:33:33.527Z,31.00
2019-04-21T17:36:00.823Z,31.40
2019-04-21T17:38:28.059Z,31.80
2019-04-21T17:40:56.013Z,32.80
2019-04-21T17:43:23.849Z,31.90
2019-04-21T17:45:51.075Z,31.80
2019-04-21T17:48:19.673Z,32.00
2019-04-21T17:51:11.669Z,32.60
2019-04-21T17:53:55.133Z,33.10
2019-04-21T17:56:50.789Z,33.80
2019-04-21T17:59:10.043Z,34.30
2019-04-21T18:01:42.028Z,34.50
2019-04-21T18:04:11.839Z,34.90
2019-04-21T18:06:46.561Z,35.10
2019-04-21T18:09:22.352Z,35.30
2019-04-21T18:11:46.759Z,35.50
2019-04-21T18:13:55.501Z,35.80
2019-04-21T18:16:31.613Z,36.10
2019-04-21T18:18:52.863Z,37.30
2019-04-21T18:21:26.997Z,36.90
2019-04-21T18:24:05.751Z,37.00
2019-04-21T18:26:39.457Z,36.90
2019-04-21T18:28:57.169Z,37.50
2019-04-21T18:31:26.930Z,37.70
2019-04-21T18:34:06.125Z,38.10
2019-04-21T18:36:38.347Z,39.10
2019-04-21T18:39:38.152Z,39.80
2019-04-21T18:42:26.515Z,40.80
2019-04-21T18:47:59.492Z,42.30
2019-04-21T18:50:48.849Z,42.80
2019-04-21T18:53:31.425Z,43.30
2019-04-21T18:55:47.090Z,43.80
2019-04-21T18:58:13.693Z,44.30
2019-04-21T19:00:45.344Z,44.10
2019-04-21T19:03:12.304Z,44.50
2019-04-21T19:05:46.904Z,45.10
2019-04-21T19:08:26.365Z,45.80
2019-04-21T19:11:03.929Z,46.00
2019-04-21T19:13:41.951Z,46.40
2019-04-21T19:16:15.231Z,46.60
2019-04-21T19:20:53.782Z,46.90
2019-04-21T19:23:33.851Z,47.20
2019-04-21T19:25:55.516Z,47.50
2019-04-21T19:28:16.929Z,47.30
2019-04-21T19:33:15.988Z,47.40
2019-04-21T19:35:29.676Z,47.50
2019-04-21T19:38:04.190Z,47.60
2019-04-21T19:40:40.459Z,47.80
2019-04-21T19:43:03.591Z,48.10
2019-04-21T19:45:39.687Z,48.20
2019-04-21T19:48:13.541Z,48.20
2019-04-21T19:50:43.453Z,48.10
2019-04-21T19:53:03.091Z,48.10
2019-04-21T19:55:22.287Z,48.70
2019-04-21T19:57:49.436Z,48.30
2019-04-21T20:00:17.474Z,48.30
2019-04-21T20:02:46.548Z,48.30
2019-04-21T20:05:24.258Z,48.40
2019-04-21T20:08:03.659Z,48.50
2019-04-21T20:10:35.248Z,48.60
2019-04-21T20:13:03.164Z,48.40
2019-04-21T20:15:36.106Z,48.40
2019-04-21T20:17:54.002Z,48.20
2019-04-21T20:20:09.267Z,48.30
2019-04-21T20:22:40.414Z,48.80
2019-04-21T20:25:11.599Z,49.90
2019-04-21T20:27:45.509Z,50.10
2019-04-21T20:30:21.633Z,50.70
2019-04-21T20:32:48.922Z,50.90
2019-04-21T20:35:26.592Z,51.10
2019-04-21T20:37:50.122Z,51.70
2019-04-21T20:40:04.446Z,52.10
2019-04-21T20:42:44.069Z,52.30
2019-04-21T20:45:29.712Z,52.20
2019-04-21T20:47:35.213Z,52.70
2019-04-21T20:50:11.377Z,53.50
2019-04-21T20:52:41.880Z,52.80
2019-04-21T20:55:07.693Z,52.30
2019-04-21T20:57:35.953Z,52.10
2019-04-21T21:00:05.759Z,51.20
2019-04-21T21:02:37.240Z,50.80
2019-04-21T21:04:54.999Z,50.80
2019-04-21T21:10:07.273Z,51.30
2019-04-21T21:12:41.724Z,51.50
2019-04-21T21:14:55.550Z,51.90
2019-04-21T21:17:39.258Z,52.10
2019-04-21T21:20:02.692Z,52.20
2019-04-21T21:22:16.772Z,52.20
2019-04-21T21:24:53.250Z,52.20
2019-04-21T21:27:20.568Z,52.40
2019-04-21T21:29:49.870Z,52.50
2019-04-21T21:32:20.651Z,52.50
2019-04-21T21:34:50.776Z,52.60
2019-04-21T21:37:26.843Z,53.00
2019-04-21T21:39:52.070Z,53.00
2019-04-21T21:42:02.794Z,53.30
2019-04-21T21:44:29.986Z,53.30
2019-04-21T21:47:06.412Z,53.40
2019-04-21T21:49:39.411Z,53.80
2019-04-21T21:52:04.474Z,54.00
2019-04-21T21:54:22.150Z,54.30
2019-04-21T21:56:50.325Z,54.70
2019-04-21T21:59:22.911Z,54.80
2019-04-21T22:01:51.891Z,55.40
2019-04-21T22:04:23.815Z,55.30
2019-04-21T22:06:53.270Z,55.80
2019-04-21T22:09:14.562Z,56.20
2019-04-21T22:11:42.206Z,56.90
2019-04-21T22:14:13.271Z,56.70
2019-04-21T22:16:47.383Z,56.90
2019-04-21T22:19:27.264Z,57.40
2019-04-21T22:21:53.274Z,58.30
2019-04-21T22:24:19.363Z,58.10
2019-04-21T22:26:34.786Z,58.50
2019-04-21T22:29:01.832Z,58.90
2019-04-21T22:31:33.693Z,59.30
2019-04-21T22:34:03.832Z,59.60
2019-04-21T22:36:38.022Z,60.00
2019-04-21T22:39:13.099Z,60.30
2019-04-21T22:41:32.092Z,60.60
2019-04-21T22:43:54.242Z,61.20
2019-04-21T22:46:22.356Z,61.50
2019-04-21T22:48:55.895Z,62.20
2019-04-21T22:51:25.310Z,62.70
2019-04-21T22:53:50.355Z,63.00
2019-04-21T22:56:23.831Z,63.30
2019-04-21T22:58:46.512Z,63.50
2019-04-21T23:01:17.063Z,63.70
2019-04-21T23:03:49.203Z,63.90
2019-04-21T23:06:19.264Z,64.00
2019-04-21T23:08:43.570Z,64.10
2019-04-21T23:11:12.278Z,64.20
2019-04-21T23:13:40.064Z,64.30
2019-04-21T23:16:08.461Z,64.00
2019-04-21T23:18:46.452Z,63.80
2019-04-21T23:21:17.376Z,63.70
2019-04-21T23:23:49.657Z,63.60
2019-04-21T23:26:23.677Z,63.80
2019-04-21T23:28:51.299Z,63.70
2019-04-21T23:31:20.804Z,63.50
2019-04-21T23:33:30.659Z,63.60
2019-04-21T23:36:02.743Z,63.30
2019-04-21T23:38:31.811Z,63.40
2019-04-21T23:40:58.677Z,64.30
2019-04-21T23:43:26.398Z,63.70
2019-04-21T23:45:52.115Z,63.90
2019-04-21T23:48:33.651Z,63.90
2019-04-21T23:50:55.036Z,64.00
2019-04-21T23:53:17.372Z,64.20
2019-04-21T23:55:45.329Z,64.40
2019-04-21T23:58:18.678Z,64.60
